Timeline UpdatesTrip UpdatesNews PostsPvt PostsTravel TipsAdmin PostsConv PostsFollowed PostsChat RequestsBlog PostsPNR Posts

Disclaimer
Search
 
 
Thu Apr 24, 2014 09:33:34 ISTHomeTrainsΣChainsAtlasPNRForumGalleryNewsFAQTripsMembersLoginFeedback
No Recent News for this Train
Other Trains in the News **new
Latest...
.
Fri Jun 22, 2012 (10:25PM)
⇐ Return Journey: Train# 54811

54812/Jodhpur-Bhopal Passenger

Feb 22 2014 (11:36PM)
Change Departure Station:
Change Arrival Station:
Post a Train Travel TipPost a Train Travel Tip **new
Post a Comment/Question/Picture/VideoPost a Comment/Question/Picture/Video
Pantry/Catering
✕ NO Pantry Car
✕ NO Catering
Loco/Rake Reversals
SWM/Sawai Madhopur Junction (4); KOTA/Kota Junction (5);
RSA - Rake Sharing
RSA with 54821/22 bhildi jodhpur passenger
Rake/Coach Composition
LOCO, SLR, GS, GS, GS, S-1, S-2, S-3, GS, GS, GS, GS, GS, GSLRD, STORE DELIVERY VAN
Loco
WDM 2A upto Bina, Bina to Bhopal: WAM 4
News    PNR    Forum    Time-Table    Availability    Fare Chart    Map    Arr/Dep History    Trips    Gallery    ΣChains    X/O    Timeline    
Travel Time: 3h 29m    11 halts    Distance: 113 km    Avg Speed: 32 km/hr
Type: Passenger
Zone: NWR/North Western
Departs @ 07:21 (Avg 1h 6m late)
Platform# ???
SMTWTFS
Kalhar/KAH 
Arrives @ 10:50 (Avg 18m late)
Platform# 5
SMTWTFS
Bhopal Junction/BPL 

11 halts. 17 intermediate Stations between Kalhar and Bhopal Junction

Show ALL intermediate Stations  Show Old Time-Table

#CodeStation NameX/OArrivesAvgDepartsAvgHaltPFDay#KmSpeedElevZoneAddress
1JUJodhpur Junction (5)  -08:05+2--1-880.828241mNWRJodhpur, Rajasthan
2RKBRaikabagh Palace Junction (2)X  08:10+908:12+192m--1-878.560237mNWRJodhpur, Rajasthan
3BNOBanar  08:24+2208:26+222m--1-866.655213mNWRBanar, Rajasthan
4JWLJajiwalX  08:35+2208:37+232m--1-858.367228mNWRJodhpur, Rajasthan
5AASAsranada  08:45+2408:47+252m--1-849.561251mNWRState Highway 58, Rajasthan
6KSWKheri Salwa  08:56+2508:58+272m--1-840.464269mNWRJajiwal, Rajasthan
7PPRPipar Road Junction  09:04+2909:06+312m--1-833.957272mNWRState Highway 58, Rajasthan
8SWFSathin Road  09:15+3109:17+352m--1-825.362284mNWRUMED, Rajasthan
9UMEDUmedX  09:27+3509:29+372m--1-815.056308mNWRJodhpur, Rajasthan
10KXGKharia Khangarh  09:40+3709:42+382m--1-804.854310mNWRKharia Khangar, Rajasthan
11GOTNGotan  09:50+3809:52+402m--1-797.759323mNWRGotan, Rajasthan
12JOMJogi Magra (1)X  10:02+4010:04+452m11-787.924335mNWRNagaur, Rajasthan
13MTDMerta Road Junction (4)  10:30+3010:35+335m--1-777.5116322mNWRPhalodi, Rajasthan
14KQWKheduli  10:43+3610:45+352m--1-762.117307mNWRRen, Rajasthan
15RENRen  10:52+3610:54+372m--1-760.163307mNWRNagaur, Rajasthan
16JACJalsu  11:07+3611:09+372m--1-746.448321mNWRNagaur, Rajasthan
17JACNJalsu Nanak  11:16+3411:18+342m--1-740.849331mNWRREN, Rajasthan
18DNADegana Junction (4)  11:27+3411:30+363m--1-733.582339mNWRDegana, Rajasthan
19GCHGachhipura  11:41+3811:43+402m--1-718.468362mNWRNagaur, Rajasthan
20BSRLBesroli  11:53+4011:55+442m--1-707.171378mNWRNagaur, Rajasthan
21BOWBorawar  12:05+4512:07+482m--1-695.239403mNWRBesrol, Rajasthan
22MKNMakrana Junction (2)  12:15+4812:17+502m--1-690.057423mNWRMakrana, Rajasthan
23KMNCKuchaman CityX  12:32+4912:34+512m--1-675.941404mNWRPalari, Rajasthan
24THMRThathana Mithri  12:41+5012:43+502m--1-671.151388mNWRNawa City, Rajasthan
25NYKNaya KharadiaX  12:48+5012:50+542m--1-666.836375mNWRMakrana, Rajasthan
26NACNawa City  13:01+5113:03+532m--1-660.250390mNWRNawa, Rajasthan
27GVMRGovindi Marwar  13:14+5213:16+562m--1-651.064373mNWRSambhar Lake, Rajasthan
28GAGudha (1)X  13:26+5613:28+1:042m11-640.346365mNWRPhulera, Rajasthan
29SBRSambhar LakeO  13:38+1:0413:40+1:062m--1-632.65368mNWRSambhar, Rajasthan
30FLPhulera Junction (5)X  15:00+815:05+175m--1-625.574386mNWRPhulera, Rajasthan
31HDAHirnodaX  15:12+2215:13+251m--1-616.840400mNWRJaipur, Rajasthan
32DHNDDhinda  15:19+2415:20+241m--1-612.848386mNWRMDR 59, Rajasthan
33JOBAsalpur JobnerX  15:27+2415:28+241m--1-607.156379mNWRJaipur, Rajasthan
34BOBSBobas  15:36+2515:37+321m--1-599.752396mNWRJaipur, Rajasthan
35SHNXSheo Singh PuraX  15:45+3115:46+311m--1-592.838411mNWRJaipur, Rajasthan
36DNKDhanakya  15:52+3115:53+331m--1-589.046418mNWRJaipur, Rajasthan
37BDYKBindayaka  15:59+3316:00+331m--1-584.452411mNWRJaipur, Rajasthan
38KKUKanakpuraXO  16:06+3316:07+381m--1-579.214429mNWRJaipur, Rajasthan
39JPJaipur Junction (7)XO  16:45+1517:45+860m41-570.449434mNWRJaipur, Rajasthan
40DPADurgapura (3)  17:54+1317:55+151m11-563.033400mNWRJaipur, Rajasthan
41SNGNSanganer  18:04+1418:05+171m11-558.166383mNWRJaipur, Rajasthan
42SASShivdaspura Padampura  18:20+1718:21+181m11-541.575335mNWRJaipur, Rajasthan
43CKSChaksuX  18:32+2218:33+221m--1-527.748319mNWRDist. Jaipur, Rajasthan
44CHNNChannani  18:46+1918:47+201m--1-517.271326mNWRChaksu, Rajasthan
45BNLWBansthali Niwai (2)  18:58+2118:59+231m--1-504.368315mNWRMaharajpura, Rajasthan
46SRASSiras  19:13+2119:14+211m--1-488.561270mNWRIsarda, Rajasthan
47ISAIsarda  19:24+2119:25+211m--1-478.457271mNWRMDR 111, Rajasthan
48SURLSureli  19:34+2119:35+211m--1-469.861258mNWRDevpura, Rajasthan
49CKBChauth ka Barwara (1)X  19:44+2119:45+221m11-460.626272mNWRSawai Madhopur, Rajasthan
50DPZDevpura (1)  20:11+1020:12+111m11-449.550271mNWRSawai Madhopur, Rajasthan
51SWMSawai Madhopur Junction (4)O↵¶20:25+3020:40+4615m31-438.753266mWCRSawai Madhopur, Rajasthan
52RWJRawania DungarX  20:59+4521:00+481m--1-421.851266mWCRSawai Madhopur, Rajasthan
53AMLIAmli  21:09+4621:10+481m--1-414.287233mWCRSawai Madhopur, Rajasthan
54IDGIndargarh Sumerganj Mandi (2)  21:19+5121:20+551m--1-401.173247mWCRIndargarh, Rajasthan
55LKELakheri (3)  21:29+5521:30+571m--1-390.167228mWCRBundi, Rajasthan
56KPZKaprenX  21:54+5521:55+581m--1-363.267234mWCRKota - Lalsot Mega Highway, Rajasthan
57KPTNKeshorai PatanO  22:13+5622:14+1:011m--1-343.026243mWCRSH 33, Rajasthan
58KOTAKota Junction (5)X22:45+5822:55+1:1110m41-329.562256mWCRKota, Rajasthan
59ATHAntah  23:38+1:1023:40+1:102m--1-284.834246mWCRAntah, Rajasthan
60BAZBaran  00:18+5300:20+562m--2-263.243261mWCRBaran, Rajasthan
61ATRUAtru (1)  01:01+4401:03+462m12-234.060288mWCRAtru, Rajasthan
62SYLSalpura  01:17+4401:18+461m--2-220.071311mWCRKawari, Rajasthan
63CAGChhabra Gugor  01:31+3901:33+392m--2-204.532342mWCRBaran, Rajasthan
64RTARuthiyai Junction (2)  02:45+3402:50+445m--2-165.954414mWCRRuthiyai, Madhya Pradesh
65MUGAMahugara  03:05+4403:07+512m--2-152.425501mWCRRuthiyai, Madhya Pradesh
66GUNAGuna Junction (3)X  03:25+4403:35+4710m--2-145.037477mWCRJn Point Indore/Gwalior/Bina/Kota, Madhya Pradesh
67PGAPagaraX  03:57+4503:59+462m--2-131.546494mWCRGuna, Madhya Pradesh
68SHDRShadhoragaon  04:19+4404:21+452m--2-116.161504mWCRGuna, Madhya Pradesh
69RIKARatikheda  04:29+4604:31+482m--2-108.048526mWCRGuna, Madhya Pradesh
70ASKNAshok Nagar (2)  04:40+4904:42+532m--2-100.854502mWCRAshoknagar, Madhya Pradesh
71ORROrr  04:56+5604:58+572m--2-88.141450mWCRAshoknagar, Madhya Pradesh
72PIAPipraigaon (3)X  05:18+5405:20+562m22-74.450451mWCRAshoknagar, Madhya Pradesh
73GVBGuneru Bamori (2)  05:33+5305:35+552m--2-63.563427mWCRAshoknagar, Madhya Pradesh
74MNVMungaoli (2)  05:43+5705:45+582m--2-55.148403mWCRAshoknagar, Madhya Pradesh
75KXBKanjiyaX  05:55+5705:57+572m--2-47.182390mWCRMungaoli, Madhya Pradesh
76SRKISemarkheri  06:03+1:0006:05+1:012m--2-38.938412mWCRBina, Madhya Pradesh
77MDVKMahadeokhedi  06:13+1:0106:15+1:102m--2-33.819423mWCRBina, Madhya Pradesh
78BINABina Junction (5)  06:40+1:0206:50+1:0010m22-26.170414mWCRJn Pt - KATNI/GUNA/ BPL/JHS, Madhya Pradesh
79KIKAKurwai Kethora (2)XO  06:58+1:0507:00+1:072m--2-16.853407mWCRBina, Madhya Pradesh
80MABAMandi Bamora (3)X  07:09+1:0707:11+1:072m22-8.866413mWCRState Highway 14, Madhya Pradesh
81KAH»Kalhar (3)»X  07:19+1:0507:21+1:062m--20.066409mWCRSagar, Madhya Pradesh
82BETBareth (4)  07:30+1:0807:32+1:072m--29.825418mWCRState Highway 19, Madhya Pradesh
83BAQGanj Basoda (4)X  07:56+5807:58+582m2219.766416mWCRVidisha, Madhya Pradesh
84PAIPabai (3)XO  08:06+1:0008:08+1:012m--228.472425mWCRVidisha, Madhya Pradesh
85GLGGulabhGanj (3)XO  08:16+1:0108:18+1:012m2238.056432mWCRVidisha, Madhya Pradesh
86SUMRSumer (3)XO  08:26+1:0008:28+592m--245.520417mWCRVidisha, Madhya Pradesh
87BHSVidisha (3)X  09:09+4209:11+432m2259.047432mWCRVidisha, Madhya Pradesh
88SCISanchi (2)X  09:23+4209:25+412m1268.455428mWCRRaisen, Madhya Pradesh
89SMTSalamatpur (3)  09:33+4109:35+412m1275.769437mWCRRaisen, Madhya Pradesh
90DWGDewanGanj (3)X  09:43+4009:45+402m2285.048444mWCRRaisen, Madhya Pradesh
91BVBBhadbhadaghat (1)X  09:56+3809:58+382m1293.845474mWCRBhopal, Madhya Pradesh
92SUWSukhisewaniyan (3)X  10:08+2010:10+212m22101.217508mWCRBhopal, Madhya Pradesh
93BPL•Bhopal Junction (6)•  10:50+18-52112.5-497mWCRBhopal, Madhya Pradesh
Scroll to Top
Scroll to Bottom